createdAt,value
2023-04-30T00:01:08.933Z,97.97
2023-04-30T00:05:10.965Z,98.15
2023-04-30T00:09:12.975Z,98.21
2023-04-30T00:13:15.055Z,98.36
2023-04-30T00:17:17.075Z,98.98
2023-04-30T00:21:19.122Z,99.13
2023-04-30T00:25:21.379Z,99.65
2023-04-30T00:29:23.423Z,100.00
2023-04-30T00:33:25.446Z,99.88
2023-04-30T00:37:27.495Z,100.00
2023-04-30T00:41:31.767Z,99.73
2023-04-30T00:45:33.816Z,100.00
2023-04-30T00:49:35.842Z,100.00
2023-04-30T00:53:40.338Z,99.98
2023-04-30T00:57:42.459Z,100.00
2023-04-30T01:01:44.662Z,100.00
2023-04-30T01:05:46.705Z,100.00
2023-04-30T01:09:48.859Z,100.00
2023-04-30T01:14:04.240Z,100.00
2023-04-30T01:18:12.709Z,100.00
2023-04-30T01:22:37.381Z,100.00
2023-04-30T01:26:53.299Z,100.00
2023-04-30T01:30:55.534Z,100.00
2023-04-30T01:34:57.641Z,100.00
2023-04-30T01:39:12.303Z,100.00
2023-04-30T01:43:48.228Z,100.00
2023-04-30T01:48:02.293Z,100.00
2023-04-30T01:52:20.846Z,100.00
2023-04-30T01:56:30.508Z,100.00
2023-04-30T02:00:33.717Z,100.00
2023-04-30T02:04:36.322Z,100.00
2023-04-30T02:08:39.259Z,100.00
2023-04-30T02:12:41.325Z,100.00
2023-04-30T02:16:43.465Z,100.00
2023-04-30T02:20:45.658Z,100.00
2023-04-30T02:24:47.666Z,100.00
2023-04-30T02:28:49.917Z,100.00
2023-04-30T02:32:51.973Z,100.00
2023-04-30T02:36:53.999Z,100.00
2023-04-30T02:40:56.126Z,100.00
2023-04-30T02:44:58.123Z,100.00
2023-04-30T02:49:00.206Z,100.00
2023-04-30T02:53:02.415Z,100.00
2023-04-30T02:57:04.489Z,100.00
2023-04-30T03:01:06.878Z,100.00
2023-04-30T03:05:09.175Z,100.00
2023-04-30T03:09:11.372Z,100.00
2023-04-30T03:13:13.381Z,100.00
2023-04-30T03:17:15.533Z,100.00
2023-04-30T03:21:17.560Z,100.00
2023-04-30T03:25:19.550Z,100.00
2023-04-30T03:29:21.571Z,100.00
2023-04-30T03:33:23.634Z,100.00
2023-04-30T03:37:25.904Z,100.00
2023-04-30T03:41:27.965Z,100.00
2023-04-30T03:45:30.357Z,100.00
2023-04-30T03:49:32.514Z,100.00
2023-04-30T03:53:35.138Z,100.00
2023-04-30T03:57:38.952Z,100.00
2023-04-30T04:01:41.543Z,100.00
2023-04-30T04:05:43.678Z,100.00
2023-04-30T04:09:45.789Z,100.00
2023-04-30T04:13:47.888Z,100.00
2023-04-30T04:17:49.980Z,100.00
2023-04-30T04:21:52.496Z,100.00
2023-04-30T04:25:54.525Z,100.00
2023-04-30T04:29:56.982Z,100.00
2023-04-30T04:34:00.422Z,100.00
2023-04-30T04:38:02.798Z,100.00
2023-04-30T04:42:05.174Z,100.00
2023-04-30T04:46:09.637Z,100.00
2023-04-30T04:50:13.231Z,100.00
2023-04-30T04:54:15.243Z,100.00
2023-04-30T04:58:17.287Z,96.18
2023-04-30T05:02:21.253Z,88.18
2023-04-30T05:06:23.342Z,77.88
2023-04-30T05:10:25.470Z,69.36
2023-04-30T05:14:27.505Z,70.86
2023-04-30T05:18:29.524Z,74.57
2023-04-30T05:22:31.617Z,78.14
2023-04-30T05:26:33.672Z,80.12
2023-04-30T05:30:35.910Z,83.31
2023-04-30T05:34:37.891Z,84.61
2023-04-30T05:38:40.165Z,65.91
2023-04-30T05:42:43.678Z,53.23
2023-04-30T05:46:45.896Z,46.69
2023-04-30T05:50:47.903Z,42.40
2023-04-30T05:54:50.656Z,40.81
2023-04-30T05:58:52.763Z,40.55
2023-04-30T06:02:54.873Z,39.88
2023-04-30T06:06:56.934Z,37.68
2023-04-30T06:10:59.103Z,37.61
2023-04-30T06:15:01.276Z,36.77
2023-04-30T06:19:03.311Z,34.03
2023-04-30T06:23:05.512Z,34.99
2023-04-30T06:27:07.599Z,35.85
2023-04-30T06:31:09.683Z,33.40
2023-04-30T06:35:11.767Z,33.69
2023-04-30T06:39:17.062Z,34.74
2023-04-30T06:43:19.096Z,35.39
2023-04-30T06:47:21.138Z,35.76
2023-04-30T06:51:23.127Z,36.99
2023-04-30T06:55:25.199Z,36.31
2023-04-30T06:59:27.204Z,36.06
2023-04-30T07:03:29.359Z,34.99
2023-04-30T07:07:32.418Z,37.70
2023-04-30T07:11:34.420Z,43.68
2023-04-30T07:15:38.093Z,48.30
2023-04-30T07:19:40.143Z,54.53
2023-04-30T07:23:44.020Z,62.04
2023-04-30T07:27:46.334Z,64.75
2023-04-30T07:31:48.376Z,63.02
2023-04-30T07:35:51.342Z,66.66
2023-04-30T07:39:53.585Z,70.87
2023-04-30T07:43:55.825Z,71.35
2023-04-30T07:47:57.847Z,73.22
2023-04-30T07:52:01.365Z,73.72
2023-04-30T07:56:03.683Z,74.49
2023-04-30T08:00:06.673Z,74.49
2023-04-30T08:04:14.426Z,75.05
2023-04-30T08:08:16.438Z,74.28
2023-04-30T08:12:19.028Z,75.95
2023-04-30T08:16:21.080Z,76.81
2023-04-30T08:20:26.254Z,75.72
2023-04-30T08:24:28.271Z,75.16
2023-04-30T08:28:30.943Z,72.15
2023-04-30T08:32:36.654Z,73.02
2023-04-30T08:36:38.712Z,72.92
2023-04-30T08:40:50.820Z,74.27
2023-04-30T08:44:54.046Z,72.83
2023-04-30T08:48:56.164Z,71.94
2023-04-30T08:52:59.139Z,70.75
2023-04-30T08:57:01.525Z,73.24
2023-04-30T09:01:06.808Z,73.20
2023-04-30T09:05:12.530Z,73.16
2023-04-30T09:09:16.126Z,71.27
2023-04-30T09:13:18.128Z,68.45
2023-04-30T09:17:23.372Z,66.73
2023-04-30T09:21:33.013Z,66.07
2023-04-30T09:25:42.389Z,65.12
2023-04-30T09:29:45.051Z,67.16
2023-04-30T09:33:47.533Z,62.53
2023-04-30T09:37:49.592Z,59.97
2023-04-30T09:41:54.462Z,61.18
2023-04-30T09:45:58.646Z,59.95
2023-04-30T09:50:00.748Z,60.87
2023-04-30T09:54:04.579Z,59.33
2023-04-30T09:58:07.441Z,60.49
2023-04-30T10:02:10.615Z,58.43
2023-04-30T10:06:18.444Z,58.59
2023-04-30T10:10:21.628Z,56.94
2023-04-30T10:14:27.029Z,58.23
2023-04-30T10:18:33.799Z,60.16
2023-04-30T10:22:36.534Z,56.29
2023-04-30T10:26:38.967Z,55.67
2023-04-30T10:30:43.137Z,56.23
2023-04-30T10:35:13.418Z,57.38
2023-04-30T10:39:21.248Z,55.81
2023-04-30T10:43:24.565Z,56.10
2023-04-30T10:47:30.738Z,57.01
2023-04-30T10:51:47.458Z,53.51
2023-04-30T10:56:00.509Z,53.12
2023-04-30T11:00:14.312Z,54.79
2023-04-30T11:04:16.625Z,52.31
2023-04-30T11:08:21.088Z,51.12
2023-04-30T11:12:28.290Z,49.71
2023-04-30T11:16:31.489Z,49.95
2023-04-30T11:20:33.708Z,50.73
2023-04-30T11:24:52.343Z,50.00
2023-04-30T11:28:56.348Z,48.77
2023-04-30T11:32:59.699Z,47.97
2023-04-30T11:37:03.550Z,49.80
2023-04-30T11:41:06.815Z,47.37
2023-04-30T11:45:13.839Z,48.80
2023-04-30T11:49:15.999Z,50.62
2023-04-30T11:53:18.536Z,47.70
2023-04-30T11:57:20.566Z,47.37
2023-04-30T12:01:29.202Z,47.44
2023-04-30T12:05:31.235Z,47.46
2023-04-30T12:09:33.236Z,49.21
2023-04-30T12:13:35.249Z,47.50
2023-04-30T12:17:37.308Z,47.25
2023-04-30T12:21:41.944Z,47.43
2023-04-30T12:25:44.239Z,47.91
2023-04-30T12:29:47.384Z,48.97
2023-04-30T12:33:56.411Z,47.45
2023-04-30T12:38:04.445Z,45.70
2023-04-30T12:42:06.434Z,46.39
2023-04-30T12:46:08.590Z,45.99
2023-04-30T12:50:15.031Z,46.28
2023-04-30T12:54:31.481Z,43.69
2023-04-30T12:58:33.515Z,45.68
2023-04-30T13:02:35.803Z,44.23
2023-04-30T13:06:37.948Z,44.44
2023-04-30T13:10:40.202Z,44.19
2023-04-30T13:14:42.310Z,46.03
2023-04-30T13:18:44.363Z,44.33
2023-04-30T13:22:46.440Z,42.34
2023-04-30T13:26:48.810Z,43.92
2023-04-30T13:30:50.868Z,44.68
2023-04-30T13:34:55.030Z,42.08
2023-04-30T13:38:58.346Z,42.99
2023-04-30T13:43:00.396Z,41.48
2023-04-30T13:47:02.514Z,42.47
2023-04-30T13:51:04.746Z,42.69
2023-04-30T13:55:07.583Z,42.14
2023-04-30T13:59:09.624Z,42.45
2023-04-30T14:03:12.536Z,43.44
2023-04-30T14:07:14.791Z,42.45
2023-04-30T14:11:16.854Z,42.75
2023-04-30T14:15:18.970Z,43.85
2023-04-30T14:19:22.593Z,44.02
2023-04-30T14:23:24.633Z,42.44
2023-04-30T14:27:26.896Z,40.46
2023-04-30T14:31:29.006Z,42.27
2023-04-30T14:35:31.046Z,41.71
2023-04-30T14:39:33.024Z,41.68
2023-04-30T14:43:35.039Z,42.77
2023-04-30T14:47:37.196Z,42.29
2023-04-30T14:51:39.290Z,42.88
2023-04-30T14:55:41.841Z,42.19
2023-04-30T14:59:43.929Z,43.48
2023-04-30T15:03:46.568Z,43.57
2023-04-30T15:07:48.759Z,42.23
2023-04-30T15:11:50.900Z,43.21
2023-04-30T15:15:53.127Z,43.15
2023-04-30T15:19:56.257Z,42.56
2023-04-30T15:23:58.428Z,41.80
2023-04-30T15:28:00.709Z,42.69
2023-04-30T15:32:02.743Z,41.74
2023-04-30T15:36:05.350Z,42.34
2023-04-30T15:40:10.755Z,41.99
2023-04-30T15:44:12.910Z,42.67
2023-04-30T15:48:15.018Z,42.73
2023-04-30T15:52:17.018Z,43.45
2023-04-30T15:56:20.342Z,43.86
2023-04-30T16:00:23.758Z,42.91
2023-04-30T16:04:25.835Z,42.55
2023-04-30T16:08:28.420Z,43.66
2023-04-30T16:12:30.463Z,43.98
2023-04-30T16:16:32.520Z,44.36
2023-04-30T16:20:36.881Z,44.47
2023-04-30T16:24:38.978Z,44.49
2023-04-30T16:28:40.969Z,43.73
2023-04-30T16:32:43.066Z,44.03
2023-04-30T16:36:45.142Z,43.87
2023-04-30T16:40:47.762Z,43.42
2023-04-30T16:44:49.895Z,44.35
2023-04-30T16:48:51.981Z,43.99
2023-04-30T16:52:54.082Z,43.69
2023-04-30T16:56:56.106Z,44.02
2023-04-30T17:00:58.128Z,44.52
2023-04-30T17:05:00.156Z,44.80
2023-04-30T17:09:02.156Z,45.77
2023-04-30T17:13:05.490Z,44.96
2023-04-30T17:17:07.672Z,45.04
2023-04-30T17:21:09.736Z,44.10
2023-04-30T17:25:11.947Z,44.66
2023-04-30T17:29:14.100Z,46.49
2023-04-30T17:33:16.104Z,47.08
2023-04-30T17:37:18.241Z,48.33
2023-04-30T17:41:20.338Z,47.68
2023-04-30T17:45:22.378Z,48.33
2023-04-30T17:49:25.721Z,48.72
2023-04-30T17:53:27.717Z,49.26
2023-04-30T17:57:29.728Z,48.86
2023-04-30T18:01:31.922Z,49.91
2023-04-30T18:05:35.552Z,50.67
2023-04-30T18:09:37.889Z,50.92
2023-04-30T18:13:39.970Z,51.17
2023-04-30T18:17:42.330Z,51.92
2023-04-30T18:21:44.406Z,52.33
2023-04-30T18:25:47.517Z,52.66
2023-04-30T18:29:50.239Z,53.23
2023-04-30T18:33:52.315Z,54.17
2023-04-30T18:37:55.568Z,54.34
2023-04-30T18:41:57.557Z,54.99
2023-04-30T18:45:59.577Z,55.83
2023-04-30T18:50:01.595Z,56.71
2023-04-30T18:54:03.676Z,57.52
2023-04-30T18:58:05.722Z,58.56
2023-04-30T19:02:07.969Z,59.21
2023-04-30T19:06:10.191Z,59.93
2023-04-30T19:10:12.453Z,60.24
2023-04-30T19:14:14.629Z,60.50
2023-04-30T19:18:17.718Z,60.02
2023-04-30T19:22:19.726Z,59.69
2023-04-30T19:26:22.537Z,59.22
2023-04-30T19:30:24.557Z,58.93
2023-04-30T19:34:27.015Z,58.71
2023-04-30T19:38:28.992Z,58.06
2023-04-30T19:42:32.297Z,57.45
2023-04-30T19:46:34.715Z,57.46
2023-04-30T19:50:44.910Z,57.11
2023-04-30T19:54:49.958Z,56.95
2023-04-30T19:58:52.037Z,57.02
2023-04-30T20:02:54.128Z,57.34
2023-04-30T20:06:58.220Z,57.25
2023-04-30T20:11:01.372Z,57.44
2023-04-30T20:15:05.726Z,57.66
2023-04-30T20:19:07.815Z,58.28
2023-04-30T20:23:17.438Z,59.56
2023-04-30T20:27:19.460Z,60.51
2023-04-30T20:31:21.493Z,61.59
2023-04-30T20:35:24.094Z,63.24
2023-04-30T20:39:26.639Z,63.76
2023-04-30T20:43:28.745Z,64.34
2023-04-30T20:47:30.790Z,65.46
2023-04-30T20:51:32.838Z,66.54
2023-04-30T20:55:34.824Z,67.77
2023-04-30T20:59:37.327Z,69.29
2023-04-30T21:03:39.385Z,71.27
2023-04-30T21:07:41.494Z,71.44
2023-04-30T21:11:43.526Z,72.41
2023-04-30T21:15:47.066Z,73.04
2023-04-30T21:19:49.272Z,74.19
2023-04-30T21:23:51.442Z,75.16
2023-04-30T21:27:53.534Z,75.47
2023-04-30T21:31:56.293Z,76.47
2023-04-30T21:35:58.300Z,76.61
2023-04-30T21:40:00.398Z,76.07
2023-04-30T21:44:02.387Z,76.30
2023-04-30T21:48:05.475Z,76.46
2023-04-30T21:52:08.333Z,76.63
2023-04-30T21:56:11.236Z,76.90
2023-04-30T22:00:14.717Z,77.11
2023-04-30T22:04:25.172Z,77.16
2023-04-30T22:08:27.997Z,77.36
2023-04-30T22:12:30.057Z,76.82
2023-04-30T22:16:32.923Z,78.38
2023-04-30T22:20:35.065Z,78.99
2023-04-30T22:24:37.103Z,79.57
2023-04-30T22:28:39.077Z,79.09
2023-04-30T22:32:41.122Z,79.87
2023-04-30T22:36:44.340Z,80.15
2023-04-30T22:40:47.024Z,81.46
2023-04-30T22:44:50.370Z,82.71
2023-04-30T22:48:53.565Z,83.43
2023-04-30T22:52:56.279Z,84.02
2023-04-30T22:56:58.371Z,83.55
2023-04-30T23:01:00.561Z,84.22
2023-04-30T23:05:03.632Z,83.30
2023-04-30T23:09:05.705Z,84.15
2023-04-30T23:13:07.850Z,84.53
2023-04-30T23:17:09.933Z,84.84
2023-04-30T23:21:12.050Z,85.97
2023-04-30T23:25:14.069Z,86.00
2023-04-30T23:29:16.333Z,86.44
2023-04-30T23:33:19.229Z,86.51
2023-04-30T23:37:21.571Z,86.00
2023-04-30T23:41:23.537Z,86.29
2023-04-30T23:45:25.525Z,85.52
2023-04-30T23:49:27.529Z,85.33
2023-04-30T23:53:30.305Z,86.13
2023-04-30T23:57:32.372Z,86.37
